Time;durP1;ratioP1;P1;durP2;ratioP2;P2;SDS_P1;SDS_P2;PMS_P1;PMS_P2;Temp;Humidity;BMP_temperature;BMP_pressure;BME280_temperature;BME280_humidity;BME280_pressure;Samples;Min_cycle;Max_cycle;Signal;HPM_P1;HPM_P2
2022/02/02 00:00:17;;;;;;;7.17;1.40;;;;;;;3.85;100.00;99137.63;5005246;28;20285;-74
2022/02/02 00:02:48;;;;;;;8.47;1.93;;;;;;;3.82;100.00;99140.25;5006154;28;20232;-73
2022/02/02 00:05:21;;;;;;;7.17;1.60;;;;;;;3.83;100.00;99137.66;5006949;28;20192;-74
2022/02/02 00:07:54;;;;;;;6.70;1.23;;;;;;;3.83;100.00;99144.53;5006040;28;20288;-73
2022/02/02 00:10:43;;;;;;;8.37;1.53;;;;;;;3.84;100.00;99148.84;5004400;28;20288;-74
2022/02/02 00:13:13;;;;;;;9.97;1.80;;;;;;;3.85;100.00;99159.09;5005553;28;20205;-74
2022/02/02 00:15:50;;;;;;;8.23;1.97;;;;;;;3.86;100.00;99168.53;5007760;28;20216;-74
2022/02/02 00:18:43;;;;;;;7.00;1.77;;;;;;;3.88;100.00;99159.03;5006999;28;20250;-74
2022/02/02 00:21:17;;;;;;;12.03;1.93;;;;;;;3.89;100.00;99168.47;5006081;28;20282;-75
2022/02/02 00:23:48;;;;;;;9.30;1.77;;;;;;;3.88;100.00;99159.03;5004371;28;20576;-74
2022/02/02 00:26:19;;;;;;;10.50;2.10;;;;;;;3.90;100.00;99159.00;5008392;28;20202;-74
2022/02/02 00:28:50;;;;;;;13.87;1.87;;;;;;;3.88;100.00;99165.91;5005330;28;20238;-74
2022/02/02 00:31:23;;;;;;;12.13;1.73;;;;;;;3.88;100.00;99168.50;5006705;28;20205;-74
2022/02/02 00:33:55;;;;;;;17.43;2.83;;;;;;;3.89;100.00;99175.38;5004668;28;20203;-74
2022/02/02 00:36:24;;;;;;;9.67;2.37;;;;;;;3.91;100.00;99189.91;5002942;28;20236;-73
2022/02/02 00:38:52;;;;;;;13.83;1.97;;;;;;;3.89;100.00;99181.38;5007167;28;20227;-73
2022/02/02 00:41:19;;;;;;;8.87;1.93;;;;;;;3.86;100.00;99183.16;5010342;28;20731;-74
2022/02/02 00:43:47;;;;;;;8.37;2.00;;;;;;;3.86;100.00;99188.31;5015576;28;20205;-74
2022/02/02 00:46:15;;;;;;;10.97;1.70;;;;;;;3.86;100.00;99188.31;5007421;28;20260;-74
2022/02/02 00:48:48;;;;;;;10.00;2.00;;;;;;;3.83;100.00;99196.09;5003838;28;20315;-74
2022/02/02 00:51:19;;;;;;;11.17;1.77;;;;;;;3.82;100.00;99195.28;5005877;28;20230;-74
2022/02/02 00:53:46;;;;;;;10.90;2.03;;;;;;;3.81;100.00;99203.03;5022019;28;20224;-73
2022/02/02 00:56:12;;;;;;;8.70;1.80;;;;;;;3.82;100.00;99191.81;5005238;28;20225;-74
2022/02/02 00:58:38;;;;;;;14.27;2.20;;;;;;;3.79;100.00;99196.16;5006813;28;20267;-73
2022/02/02 01:01:05;;;;;;;8.87;2.20;;;;;;;3.83;100.00;99198.69;5010623;28;20201;-74
2022/02/02 01:03:33;;;;;;;15.70;2.10;;;;;;;3.83;100.00;99191.78;5004621;28;20210;-74
2022/02/02 01:06:02;;;;;;;11.33;2.20;;;;;;;3.82;100.00;99190.13;5004973;28;20198;-73
2022/02/02 01:08:53;;;;;;;14.07;2.40;;;;;;;3.82;100.00;99189.25;5007656;28;20231;-74
2022/02/02 01:11:44;;;;;;;13.40;1.97;;;;;;;3.78;100.00;99178.16;5005034;28;20212;-74
2022/02/02 01:17:34;;;;;;;8.87;2.20;;;;;;;3.83;100.00;99202.09;4966342;28;20265;-74
2022/02/02 01:20:05;;;;;;;14.40;2.63;;;;;;;3.85;100.00;99207.22;4999940;28;20267;-74
2022/02/02 01:28:03;;;;;;;12.80;2.23;;;;;;;3.76;100.00;99216.00;5005928;28;20220;-73
2022/02/02 01:30:29;;;;;;;11.87;2.20;;;;;;;3.71;100.00;99215.25;5005630;28;20205;-74
2022/02/02 01:32:56;;;;;;;17.43;2.37;;;;;;;3.70;100.00;99221.31;5005265;28;20205;-74
2022/02/02 01:35:25;;;;;;;10.63;2.50;;;;;;;3.60;100.00;99215.47;5003736;28;20227;-73
2022/02/02 01:37:53;;;;;;;11.50;2.13;;;;;;;3.55;100.00;99231.06;5006684;28;20200;-73
2022/02/02 01:40:25;;;;;;;8.87;2.07;;;;;;;3.47;100.00;99214.88;5005741;28;20643;-74
2022/02/02 01:42:57;;;;;;;12.13;2.43;;;;;;;3.44;100.00;99226.97;5011599;28;20205;-74
2022/02/02 01:45:29;;;;;;;13.80;2.80;;;;;;;3.38;100.00;99221.06;5005477;28;20199;-75
2022/02/02 01:48:08;;;;;;;12.30;2.13;;;;;;;3.34;100.00;99228.88;5006685;28;20300;-72
2022/02/02 01:50:48;;;;;;;13.23;2.53;;;;;;;3.30;100.00;99228.06;5005788;28;20207;-74
2022/02/02 01:53:24;;;;;;;11.67;2.00;;;;;;;3.26;100.00;99213.56;5006799;28;20289;-73
2022/02/02 01:55:51;;;;;;;8.73;2.00;;;;;;;3.21;100.00;99218.78;5005352;28;20215;-74
2022/02/02 01:58:34;;;;;;;12.57;2.17;;;;;;;3.20;100.00;99208.50;5001190;28;20226;-74
2022/02/02 02:01:01;;;;;;;15.13;2.07;;;;;;;3.21;100.00;99213.63;5009864;28;20197;-73
2022/02/02 02:03:28;;;;;;;14.50;2.90;;;;;;;3.22;100.00;99220.50;5007657;28;20697;-74
2022/02/02 02:05:54;;;;;;;16.77;2.73;;;;;;;3.25;100.00;99216.16;5005267;28;20193;-73
2022/02/02 02:08:24;;;;;;;13.57;2.30;;;;;;;3.26;100.00;99216.13;5014835;28;20221;-74
2022/02/02 02:10:51;;;;;;;13.83;2.60;;;;;;;3.27;100.00;99215.25;5006960;28;20208;-74
2022/02/02 02:13:27;;;;;;;13.40;1.93;;;;;;;3.28;100.00;99213.53;5013587;28;20200;-73
2022/02/02 02:15:54;;;;;;;15.23;2.47;;;;;;;3.30;100.00;99207.47;5009761;28;20236;-74
2022/02/02 02:18:21;;;;;;;17.57;3.33;;;;;;;3.32;100.00;99213.44;5009604;28;20303;-74
2022/02/02 02:20:48;;;;;;;11.37;1.73;;;;;;;3.30;100.00;99216.94;5010335;28;20197;-73
2022/02/02 02:23:17;;;;;;;19.30;2.57;;;;;;;3.28;100.00;99219.53;5011627;28;20562;-72
2022/02/02 02:25:44;;;;;;;14.53;2.77;;;;;;;3.26;100.00;99229.03;5007799;28;20196;-73
2022/02/02 02:28:21;;;;;;;13.97;2.00;;;;;;;3.23;100.00;99231.66;5012271;28;20251;-74
2022/02/02 02:30:51;;;;;;;14.30;1.73;;;;;;;3.20;100.00;99234.28;5011388;28;20669;-74
2022/02/02 02:33:52;;;;;;;16.47;2.27;;;;;;;3.17;100.00;99227.47;5007690;28;20911;-74
2022/02/02 02:39:31;;;;;;;10.57;2.10;;;;;;;3.13;100.00;99223.25;5060030;27;21060;-75
2022/02/02 02:55:54;;;;;;;13.57;2.40;;;;;;;3.23;100.00;99252.25;5041871;28;20192;-75
2022/02/02 02:58:36;;;;;;;12.60;2.40;;;;;;;3.21;100.00;99247.13;5040779;28;20223;-75
2022/02/02 03:01:23;;;;;;;11.07;2.13;;;;;;;3.22;100.00;99253.16;5043236;28;20668;-75
2022/02/02 03:31:21;;;;;;;8.53;1.90;;;;;;;2.93;100.00;99256.22;5055779;28;20207;-75
2022/02/02 03:50:42;;;;;;;13.20;2.13;;;;;;;2.84;100.00;99276.09;5029670;28;20204;-75
2022/02/02 03:56:25;;;;;;;15.37;2.73;;;;;;;2.84;100.00;99268.34;5027178;28;20228;-74
2022/02/02 03:59:06;;;;;;;12.70;2.60;;;;;;;2.86;100.00;99272.66;5023003;28;20701;-74
2022/02/02 04:01:50;;;;;;;18.00;2.77;;;;;;;2.84;100.00;99272.66;5029696;28;20200;-74
2022/02/02 04:04:24;;;;;;;16.43;2.63;;;;;;;2.81;100.00;99265.84;5028274;28;20207;-75
2022/02/02 04:06:59;;;;;;;12.77;2.57;;;;;;;2.82;100.00;99271.84;5027470;28;20201;-74
2022/02/02 04:09:27;;;;;;;13.40;2.83;;;;;;;2.82;100.00;99264.97;5024510;28;20584;-74
2022/02/02 04:12:01;;;;;;;11.23;2.20;;;;;;;2.82;100.00;99274.41;5028205;28;20974;-74
2022/02/02 04:18:15;;;;;;;16.63;2.63;;;;;;;2.99;100.00;99276.69;5025323;28;20232;-75
2022/02/02 04:39:11;;;;;;;18.90;3.43;;;;;;;3.16;100.00;99309.91;5021970;28;20278;-75
2022/02/02 04:53:24;;;;;;;21.57;3.20;;;;;;;3.07;100.00;99300.59;5029006;28;20192;-74
2022/02/02 04:55:46;;;;;;;21.77;3.07;;;;;;;3.06;100.00;99313.50;5022796;28;20219;-75
2022/02/02 04:58:25;;;;;;;25.93;3.00;;;;;;;3.03;100.00;99317.84;5022555;28;20677;-74
2022/02/02 05:01:35;;;;;;;20.87;2.87;;;;;;;3.04;100.00;99318.69;5019963;28;20189;-74
2022/02/02 05:04:07;;;;;;;22.93;2.87;;;;;;;3.05;100.00;99324.69;5024194;28;20620;-75
2022/02/02 05:06:40;;;;;;;18.93;3.20;;;;;;;3.00;100.00;99317.88;5024096;28;20231;-75
2022/02/02 05:09:20;;;;;;;20.10;3.03;;;;;;;2.99;100.00;99321.34;5026031;28;20270;-74
2022/02/02 05:20:39;;;;;;;23.07;3.83;;;;;;;3.02;100.00;99328.16;5022081;28;20212;-74
2022/02/02 05:45:40;;;;;;;15.10;3.03;;;;;;;2.85;100.00;99405.69;4994024;28;20648;-75
2022/02/02 05:51:05;;;;;;;14.40;2.87;;;;;;;2.72;100.00;99410.13;5023019;28;20211;-75
2022/02/02 05:53:31;;;;;;;16.23;2.63;;;;;;;2.67;100.00;99406.75;5025755;28;20199;-75
2022/02/02 05:56:02;;;;;;;22.57;2.67;;;;;;;2.64;100.00;99396.53;5025353;28;20609;-75
2022/02/02 05:58:30;;;;;;;19.33;3.63;;;;;;;2.61;100.00;99417.16;5026156;28;20307;-75
2022/02/02 06:00:58;;;;;;;20.20;3.40;;;;;;;2.57;100.00;99418.03;5022903;28;20202;-75
2022/02/02 06:03:31;;;;;;;17.03;3.40;;;;;;;2.56;100.00;99424.06;5022693;28;20664;-74
2022/02/02 06:05:58;;;;;;;18.87;2.73;;;;;;;2.54;100.00;99415.53;5024360;28;20644;-74
2022/02/02 06:08:25;;;;;;;19.73;2.97;;;;;;;2.53;100.00;99406.09;5025191;28;20731;-74
2022/02/02 06:10:51;;;;;;;23.93;3.27;;;;;;;2.51;100.00;99415.56;5023905;28;20204;-74
2022/02/02 06:13:21;;;;;;;14.67;3.17;;;;;;;2.50;100.00;99417.28;5025902;28;20196;-74
2022/02/02 06:15:49;;;;;;;11.77;2.93;;;;;;;2.49;100.00;99423.28;5021429;28;20200;-75
2022/02/02 06:18:20;;;;;;;18.17;2.77;;;;;;;2.48;100.00;99426.75;5027898;28;20323;-75
2022/02/02 06:20:54;;;;;;;14.73;2.80;;;;;;;2.49;100.00;99427.59;5027854;28;20206;-75
2022/02/02 06:23:27;;;;;;;10.20;2.63;;;;;;;2.49;100.00;99431.00;5026470;28;20196;-75
2022/02/02 06:25:55;;;;;;;19.80;2.93;;;;;;;2.52;100.00;99422.41;5025202;28;20840;-76
2022/02/02 06:28:25;;;;;;;21.40;3.03;;;;;;;2.58;100.00;99430.03;5024168;28;20593;-75
2022/02/02 06:30:57;;;;;;;18.47;2.90;;;;;;;2.61;100.00;99440.31;5024069;28;20207;-73
2022/02/02 06:33:32;;;;;;;18.27;3.13;;;;;;;2.72;100.00;99447.88;5024818;28;20204;-75
2022/02/02 06:36:00;;;;;;;22.17;3.33;;;;;;;2.72;100.00;99447.88;5022591;28;20215;-75
2022/02/02 06:38:27;;;;;;;12.50;2.87;;;;;;;2.68;100.00;99441.09;5022078;28;20227;-75
2022/02/02 06:40:53;;;;;;;14.10;2.97;;;;;;;2.63;100.00;99433.41;5022956;28;20246;-75
2022/02/02 06:43:20;;;;;;;15.53;2.50;;;;;;;2.60;100.00;99443.75;5025208;28;20210;-75
2022/02/02 06:45:50;;;;;;;19.37;2.83;;;;;;;2.62;100.00;99452.28;5024719;28;20274;-75
2022/02/02 06:48:17;;;;;;;18.30;2.77;;;;;;;2.63;100.00;99454.00;5026872;28;20216;-73
2022/02/02 06:50:53;;;;;;;18.47;3.60;;;;;;;2.60;100.00;99467.78;5022649;28;20721;-75
2022/02/02 06:53:26;;;;;;;16.57;3.83;;;;;;;2.63;100.00;99466.88;5024342;28;20200;-74
2022/02/02 06:56:12;;;;;;;14.90;3.10;;;;;;;2.66;100.00;99469.41;5024840;28;20639;-75
2022/02/02 06:58:48;;;;;;;18.00;2.80;;;;;;;2.65;100.00;99476.25;5026685;28;20323;-75
2022/02/02 07:01:34;;;;;;;19.97;3.67;;;;;;;2.66;100.00;99472.00;5023307;28;20734;-75
2022/02/02 07:04:13;;;;;;;14.40;2.50;;;;;;;2.66;100.00;99482.28;5022215;28;20409;-75
2022/02/02 07:06:50;;;;;;;24.77;3.67;;;;;;;2.70;100.00;99488.25;5021025;28;20279;-75
2022/02/02 07:09:29;;;;;;;20.80;3.37;;;;;;;2.73;100.00;99496.78;5026885;28;20491;-75
2022/02/02 07:12:09;;;;;;;15.40;2.70;;;;;;;2.76;100.00;99516.47;5031420;28;20195;-75
2022/02/02 07:14:57;;;;;;;16.27;2.67;;;;;;;2.83;100.00;99518.09;5025329;28;20192;-75
2022/02/02 07:17:42;;;;;;;18.80;4.07;;;;;;;2.92;100.00;99530.00;5022165;28;20232;-75
2022/02/02 07:20:16;;;;;;;12.63;3.50;;;;;;;2.92;100.00;99535.16;5024669;28;20191;-75
2022/02/02 07:25:38;;;;;;;23.97;3.50;;;;;;;2.88;100.00;99556.69;5026182;28;20212;-75
2022/02/02 07:28:09;;;;;;;15.90;2.70;;;;;;;2.91;100.00;99567.78;5027580;28;20255;-75
2022/02/02 07:33:30;;;;;;;8.50;2.13;;;;;;;2.78;100.00;99556.78;5029774;28;20714;-75
2022/02/02 07:36:06;;;;;;;14.53;2.63;;;;;;;2.68;100.00;99569.78;5029779;28;20609;-75
2022/02/02 07:38:43;;;;;;;13.80;2.37;;;;;;;2.53;100.00;99575.91;5029707;28;20777;-75
2022/02/02 07:41:15;;;;;;;16.27;2.13;;;;;;;2.45;100.00;99574.28;5027458;28;20203;-75
2022/02/02 07:43:45;;;;;;;12.20;2.70;;;;;;;2.41;100.00;99585.47;5026998;28;20204;-74
2022/02/02 07:46:14;;;;;;;13.33;2.67;;;;;;;2.45;100.00;99579.44;5029175;28;20199;-75
2022/02/02 07:48:42;;;;;;;11.80;2.40;;;;;;;2.45;100.00;99591.44;5029241;28;20295;-74
2022/02/02 07:51:10;;;;;;;9.37;2.17;;;;;;;2.45;100.00;99576.00;5030728;28;20214;-75
2022/02/02 07:53:41;;;;;;;14.57;2.37;;;;;;;2.50;100.00;99578.53;5029936;28;20218;-74
2022/02/02 07:56:13;;;;;;;16.67;2.67;;;;;;;2.53;100.00;99581.91;5028978;28;20192;-75
2022/02/02 07:58:43;;;;;;;15.37;2.50;;;;;;;2.56;100.00;99578.47;5024319;28;20761;-75
2022/02/02 08:01:11;;;;;;;12.67;1.83;;;;;;;2.59;100.00;99581.88;5031567;28;20678;-75
2022/02/02 08:03:40;;;;;;;23.93;3.53;;;;;;;2.68;100.00;99586.06;5029052;28;20276;-75
2022/02/02 08:06:10;;;;;;;14.83;2.53;;;;;;;2.71;100.00;99588.63;5030910;28;20577;-75
2022/02/02 08:08:39;;;;;;;16.43;2.93;;;;;;;2.75;100.00;99585.13;5026362;28;20613;-75
2022/02/02 08:11:08;;;;;;;18.23;3.13;;;;;;;2.79;100.00;99604.81;5028491;28;20292;-75
2022/02/02 08:13:41;;;;;;;11.10;1.90;;;;;;;2.81;100.00;99600.53;5028270;28;20620;-73
2022/02/02 08:16:11;;;;;;;18.57;2.70;;;;;;;2.86;100.00;99605.59;5025933;28;20287;-75
2022/02/02 08:18:39;;;;;;;10.10;2.60;;;;;;;2.87;100.00;99627.03;5026784;28;20281;-74
2022/02/02 08:21:05;;;;;;;16.43;2.60;;;;;;;2.91;100.00;99621.00;5025192;28;20734;-75
2022/02/02 08:23:34;;;;;;;19.10;2.50;;;;;;;2.95;100.00;99630.41;5028236;28;20202;-75
2022/02/02 08:26:04;;;;;;;13.53;2.30;;;;;;;2.97;100.00;99636.38;5024688;28;20200;-75
2022/02/02 08:28:30;;;;;;;19.77;3.00;;;;;;;2.97;100.00;99647.56;5058565;28;20216;-75
2022/02/02 08:30:57;;;;;;;21.60;2.80;;;;;;;2.99;100.00;99645.81;5026392;28;20647;-74
2022/02/02 08:33:33;;;;;;;20.83;2.70;;;;;;;3.02;100.00;99650.06;5030084;28;20202;-75
2022/02/02 08:36:05;;;;;;;15.77;2.43;;;;;;;3.09;100.00;99663.75;5024591;28;20188;-75
2022/02/02 08:38:44;;;;;;;15.87;2.43;;;;;;;3.11;100.00;99662.00;5029033;28;20235;-75
2022/02/02 08:41:15;;;;;;;16.00;2.57;;;;;;;3.14;100.00;99656.81;5030482;28;20214;-75
2022/02/02 08:43:46;;;;;;;16.87;2.87;;;;;;;3.19;100.00;99653.31;5028660;28;20677;-75
2022/02/02 08:46:21;;;;;;;14.93;2.10;;;;;;;3.22;100.00;99655.00;5026795;28;20837;-75
2022/02/02 08:48:51;;;;;;;17.97;2.30;;;;;;;3.27;100.00;99657.53;5026741;28;20216;-75
2022/02/02 08:51:20;;;;;;;16.10;2.73;;;;;;;3.31;100.00;99659.22;5024190;28;20203;-74
2022/02/02 08:53:57;;;;;;;21.77;3.30;;;;;;;3.35;100.00;99664.28;5026138;28;20877;-75
2022/02/02 08:56:52;;;;;;;22.03;3.33;;;;;;;3.39;100.00;99662.53;5026930;28;20572;-75
2022/02/02 08:59:23;;;;;;;20.97;2.77;;;;;;;3.46;100.00;99663.31;5023489;28;20262;-74
2022/02/02 09:01:52;;;;;;;14.27;2.53;;;;;;;3.50;100.00;99664.97;5027331;28;20216;-74
2022/02/02 09:07:03;;;;;;;13.67;2.27;;;;;;;3.55;100.00;99661.47;5027001;28;20295;-75
2022/02/02 09:09:48;;;;;;;16.57;2.90;;;;;;;3.58;100.00;99678.63;5025428;28;20227;-75
2022/02/02 09:23:29;;;;;;;9.40;2.23;;;;;;;3.72;100.00;99683.59;5073875;27;20619;-75
2022/02/02 09:26:14;;;;;;;12.47;1.97;;;;;;;3.75;100.00;99687.00;5038330;27;20264;-78
2022/02/02 09:31:29;;;;;;;12.47;2.00;;;;;;;3.84;100.00;99688.59;5060305;27;20225;-75
2022/02/02 09:34:01;;;;;;;10.73;2.37;;;;;;;3.91;100.00;99715.16;5040765;27;20203;-74
2022/02/02 09:36:30;;;;;;;11.20;2.13;;;;;;;3.96;100.00;99703.91;5044251;27;20260;-75
2022/02/02 09:39:02;;;;;;;8.43;1.70;;;;;;;3.96;100.00;99714.22;5050621;27;20230;-75
2022/02/02 09:44:14;;;;;;;9.97;1.60;;;;;;;4.04;100.00;99728.72;5039344;27;20277;-75
2022/02/02 09:46:54;;;;;;;10.57;2.63;;;;;;;4.13;100.00;99752.69;5051298;27;20196;-74
2022/02/02 09:49:24;;;;;;;10.73;2.07;;;;;;;4.16;100.00;99732.00;5133638;27;20315;-75
2022/02/02 09:51:56;;;;;;;8.43;2.37;;;;;;;4.18;100.00;99737.13;5070699;27;20276;-74
2022/02/02 09:54:28;;;;;;;9.97;1.57;;;;;;;4.19;98.76;99754.34;5052078;27;20199;-75
2022/02/02 09:57:29;;;;;;;10.93;1.90;;;;;;;4.18;97.92;99750.03;5041620;27;20210;-75
2022/02/02 10:00:10;;;;;;;9.90;1.87;;;;;;;4.19;98.52;99751.75;5062491;27;20230;-74
2022/02/02 10:03:20;;;;;;;8.10;1.67;;;;;;;4.20;97.57;99750.00;5052065;27;20302;-73
2022/02/02 10:05:59;;;;;;;8.13;1.47;;;;;;;4.22;98.07;99767.19;5042964;27;20187;-75
2022/02/02 10:08:51;;;;;;;5.87;1.53;;;;;;;4.27;97.42;99774.84;5033605;27;20219;-74
2022/02/02 10:14:33;;;;;;;11.57;2.57;;;;;;;4.44;94.89;99783.22;5053317;27;20278;-74
2022/02/02 10:17:07;;;;;;;10.27;2.50;;;;;;;4.43;95.31;99778.06;5048152;27;20207;-75
2022/02/02 10:19:36;;;;;;;9.13;2.23;;;;;;;4.43;93.67;99797.00;5051460;27;20226;-73
2022/02/02 10:22:20;;;;;;;5.60;1.60;;;;;;;4.45;93.17;99796.97;5039391;27;20289;-75
2022/02/02 10:24:51;;;;;;;5.83;2.00;;;;;;;4.47;92.50;99796.09;5044367;27;20267;-74
2022/02/02 10:27:32;;;;;;;8.77;1.40;;;;;;;4.49;92.38;99794.34;5062013;27;20199;-74
2022/02/02 10:30:06;;;;;;;11.17;1.60;;;;;;;4.52;90.64;99806.31;5040182;27;20798;-75
2022/02/02 10:32:40;;;;;;;10.00;1.90;;;;;;;4.55;91.86;99807.13;5046103;27;20203;-74
2022/02/02 10:35:08;;;;;;;9.47;2.23;;;;;;;4.62;90.56;99810.50;5038103;27;20231;-74
2022/02/02 10:37:37;;;;;;;7.23;1.30;;;;;;;4.60;90.46;99829.47;5055041;27;20211;-74
2022/02/02 10:40:06;;;;;;;8.80;1.80;;;;;;;4.53;93.22;99823.53;5050140;27;20695;-75
2022/02/02 10:42:36;;;;;;;6.17;1.43;;;;;;;4.53;92.66;99826.97;5024653;27;20306;-74
2022/02/02 10:45:24;;;;;;;8.83;1.60;;;;;;;4.50;93.67;99824.44;5024994;28;20623;-74
2022/02/02 10:47:59;;;;;;;9.03;1.50;;;;;;;4.57;94.80;99814.88;5034722;27;20198;-75
2022/02/02 10:50:31;;;;;;;8.10;1.73;;;;;;;4.71;95.80;99822.41;5034985;27;20827;-75
2022/02/02 10:53:28;;;;;;;9.53;2.17;;;;;;;4.65;94.41;99818.19;5031807;27;20206;-75
2022/02/02 10:56:18;;;;;;;8.47;1.70;;;;;;;4.74;92.26;99837.88;5025886;27;20227;-74
2022/02/02 10:59:14;;;;;;;7.33;1.80;;;;;;;4.77;93.17;99826.63;5033491;28;20215;-75
2022/02/02 11:01:46;;;;;;;5.77;1.53;;;;;;;4.72;92.54;99849.97;5040172;27;20184;-75
2022/02/02 11:06:59;;;;;;;3.93;0.90;;;;;;;4.45;94.60;99859.78;5049959;27;20198;-75
2022/02/02 11:09:26;;;;;;;3.87;1.20;;;;;;;4.35;94.37;99897.75;5042221;27;20611;-75
2022/02/02 11:11:54;;;;;;;2.63;1.07;;;;;;;4.32;95.41;99882.31;5022274;28;20569;-74
2022/02/02 11:14:32;;;;;;;3.93;1.07;;;;;;;4.35;97.02;99892.59;5069579;27;20665;-74
2022/02/02 11:17:03;;;;;;;5.17;1.17;;;;;;;4.21;97.65;99894.50;5034699;27;20192;-75
2022/02/02 11:19:35;;;;;;;4.03;0.97;;;;;;;3.97;99.36;99878.44;5039761;27;20230;-75
2022/02/02 11:22:30;;;;;;;5.27;1.13;;;;;;;3.92;100.00;99887.06;5030381;27;20216;-74
2022/02/02 11:24:57;;;;;;;4.97;1.20;;;;;;;4.04;100.00;99896.41;5036340;27;20209;-74
2022/02/02 11:27:37;;;;;;;3.97;1.00;;;;;;;4.18;100.00;99908.28;5051613;27;20770;-75
2022/02/02 11:30:07;;;;;;;5.37;1.57;;;;;;;4.30;100.00;99906.44;5035951;27;20220;-75
2022/02/02 11:32:42;;;;;;;7.00;1.37;;;;;;;4.46;99.27;99900.22;5051829;27;20199;-73
2022/02/02 11:35:38;;;;;;;5.57;1.13;;;;;;;4.43;97.66;99909.72;5022589;27;20303;-75
2022/02/02 11:38:17;;;;;;;6.27;1.70;;;;;;;4.34;96.68;99908.97;5029298;28;20704;-75
2022/02/02 11:41:24;;;;;;;11.00;1.37;;;;;;;4.35;97.14;99917.56;5041123;27;20267;-75
2022/02/02 11:43:55;;;;;;;4.50;1.20;;;;;;;4.33;97.57;99917.59;5034763;27;20261;-75
2022/02/02 11:46:42;;;;;;;4.50;0.90;;;;;;;4.34;96.96;99910.69;5025149;27;20211;-75
2022/02/02 11:49:13;;;;;;;8.57;1.33;;;;;;;4.45;96.94;99923.47;5026938;27;20779;-75
2022/02/02 11:51:41;;;;;;;7.77;1.40;;;;;;;4.51;97.37;99933.72;5048144;27;20875;-74
2022/02/02 11:54:08;;;;;;;4.93;1.17;;;;;;;4.52;94.48;99938.88;5024184;28;20202;-75
2022/02/02 11:57:12;;;;;;;9.83;1.30;;;;;;;4.57;95.80;99928.47;5051044;27;20196;-75
2022/02/02 11:59:51;;;;;;;7.80;1.63;;;;;;;4.56;94.95;99952.59;5017803;28;20220;-75
2022/02/02 12:02:34;;;;;;;7.57;1.47;;;;;;;4.52;94.21;99941.44;5101599;27;20220;-75
2022/02/02 12:05:09;;;;;;;8.10;1.70;;;;;;;4.56;95.17;99960.34;5025687;27;20200;-75
2022/02/02 12:08:02;;;;;;;7.90;1.80;;;;;;;4.46;93.64;99974.22;5060154;27;20203;-75
2022/02/02 12:10:53;;;;;;;9.27;1.40;;;;;;;4.41;93.56;99983.75;5035053;27;20302;-74
2022/02/02 12:19:55;;;;;;;5.23;1.00;;;;;;;4.35;91.89;100007.91;5043242;27;20223;-75
2022/02/02 12:27:59;;;;;;;6.57;2.17;;;;;;;4.36;92.99;100009.59;5030219;27;20199;-75
2022/02/02 12:44:37;;;;;;;6.27;1.87;;;;;;;4.40;91.64;100021.63;5027634;28;20288;-74
2022/02/02 12:47:28;;;;;;;7.80;1.73;;;;;;;4.56;86.28;100032.63;5023754;27;20193;-75
2022/02/02 12:50:04;;;;;;;9.63;1.80;;;;;;;4.59;86.66;100032.59;5048384;27;20265;-75
2022/02/02 12:58:21;;;;;;;8.80;1.00;;;;;;;4.54;81.70;100063.63;5045925;27;20272;-76
2022/02/02 13:03:47;;;;;;;7.33;1.50;;;;;;;4.49;81.36;100070.56;5061102;28;20622;-77
2022/02/02 13:06:15;;;;;;;7.43;1.93;;;;;;;4.50;81.21;100092.94;5054311;28;20206;-77
2022/02/02 13:08:42;;;;;;;7.07;1.20;;;;;;;4.50;82.11;100089.47;5060591;28;20732;-77
2022/02/02 13:11:08;;;;;;;5.57;1.23;;;;;;;4.47;83.20;100103.28;5042688;28;20241;-77
2022/02/02 13:13:35;;;;;;;4.07;1.50;;;;;;;4.46;81.93;100106.72;5038282;28;20203;-77
2022/02/02 13:16:09;;;;;;;6.13;1.30;;;;;;;4.49;81.57;100119.63;5038362;28;20595;-77
2022/02/02 13:18:39;;;;;;;5.40;1.30;;;;;;;4.49;80.28;100122.19;5038933;28;20271;-77
2022/02/02 13:21:12;;;;;;;5.63;2.10;;;;;;;4.49;80.87;100129.09;5042668;28;20648;-77
2022/02/02 13:26:31;;;;;;;4.43;1.70;;;;;;;4.44;81.65;100134.28;5034119;28;20688;-77
2022/02/02 13:29:04;;;;;;;4.80;1.00;;;;;;;4.43;80.34;100135.16;5038030;28;20203;-77
2022/02/02 13:31:41;;;;;;;6.13;1.33;;;;;;;4.41;81.15;100142.06;5037720;28;20324;-77
2022/02/02 13:34:20;;;;;;;5.00;1.13;;;;;;;4.39;81.71;100158.44;5041933;28;20293;-77
2022/02/02 13:37:02;;;;;;;5.30;1.40;;;;;;;4.38;82.16;100174.78;5039527;28;20208;-77
2022/02/02 13:45:47;;;;;;;4.70;1.13;;;;;;;4.28;83.87;100198.09;4995492;28;20350;-77
2022/02/02 13:59:56;;;;;;;2.83;1.30;;;;;;;4.24;84.54;100239.41;5036706;28;20234;-77
2022/02/02 14:05:38;;;;;;;3.77;1.20;;;;;;;4.28;83.86;100272.09;5037863;28;20214;-77
2022/02/02 14:11:06;;;;;;;4.27;1.53;;;;;;;4.30;83.66;100286.69;5039245;28;20215;-78
2022/02/02 14:32:58;;;;;;;3.13;0.87;;;;;;;4.38;83.76;100327.97;4962149;28;20269;-78
2022/02/02 14:35:24;;;;;;;6.10;1.57;;;;;;;4.40;82.91;100331.38;4999131;28;20208;-77
2022/02/02 14:37:52;;;;;;;4.73;1.23;;;;;;;4.43;82.20;100338.25;5024542;28;20203;-78
2022/02/02 14:40:25;;;;;;;5.00;1.43;;;;;;;4.41;82.89;100343.41;5025545;28;20204;-77
2022/02/02 14:42:57;;;;;;;5.43;1.10;;;;;;;4.41;82.93;100353.72;5025810;28;20636;-77
2022/02/02 14:45:26;;;;;;;5.20;1.13;;;;;;;4.37;82.08;100362.38;5026310;28;20202;-77
2022/02/02 14:47:59;;;;;;;4.27;1.30;;;;;;;4.39;81.19;100376.13;5023655;28;20204;-77
2022/02/02 14:50:30;;;;;;;4.60;1.03;;;;;;;4.35;81.83;100372.69;5018353;28;20226;-78
2022/02/02 14:53:10;;;;;;;5.33;1.77;;;;;;;4.28;81.46;100376.19;5022322;28;20290;-77
2022/02/02 15:28:43;;;;;;;5.40;1.50;;;;;;;4.10;81.30;100456.25;5007154;28;20298;-77
2022/02/02 15:31:11;;;;;;;3.43;1.07;;;;;;;4.02;79.16;100473.47;5020652;28;20220;-77
2022/02/02 15:33:37;;;;;;;4.80;0.90;;;;;;;3.99;78.37;100479.47;5025115;28;20196;-77
2022/02/02 15:36:26;;;;;;;4.40;0.90;;;;;;;3.94;78.90;100484.66;5021273;28;20568;-77
2022/02/02 15:38:54;;;;;;;5.57;1.63;;;;;;;3.85;79.00;100483.78;5021596;28;20203;-77
2022/02/02 15:41:26;;;;;;;3.80;1.33;;;;;;;3.77;78.24;100494.13;5016641;28;20224;-77
2022/02/02 15:44:55;;;;;;;4.10;1.30;;;;;;;3.69;77.47;100501.84;5018887;28;20215;-77
2022/02/02 15:55:03;;;;;;;3.47;0.80;;;;;;;3.22;79.70;100520.72;5023826;28;20203;-77
2022/02/02 15:58:08;;;;;;;4.63;0.77;;;;;;;3.18;78.49;100531.84;5024831;28;20196;-77
2022/02/02 16:03:26;;;;;;;1.87;1.00;;;;;;;2.93;81.60;100542.06;5023438;28;20224;-77
2022/02/02 16:05:56;;;;;;;2.70;1.00;;;;;;;2.84;81.58;100536.88;5022506;28;20204;-77
2022/02/02 16:08:25;;;;;;;1.93;1.10;;;;;;;2.83;81.40;100554.06;5024392;28;20200;-77
2022/02/02 16:11:03;;;;;;;5.13;1.20;;;;;;;2.79;82.03;100551.47;5021092;28;20311;-77
2022/02/02 16:13:34;;;;;;;5.43;2.53;;;;;;;2.64;83.41;100558.25;5023710;28;20206;-78
2022/02/02 16:16:11;;;;;;;3.27;1.83;;;;;;;2.54;84.65;100565.94;5013974;28;20672;-77
2022/02/02 16:18:45;;;;;;;3.73;1.47;;;;;;;2.45;85.29;100567.59;5021079;28;20208;-77
2022/02/02 16:38:15;;;;;;;2.67;1.20;;;;;;;2.16;86.41;100626.53;5002257;28;20239;-77
2022/02/02 16:40:43;;;;;;;3.97;1.50;;;;;;;2.15;87.22;100632.56;5022569;28;20216;-77
2022/02/02 16:43:13;;;;;;;4.73;2.00;;;;;;;2.10;87.81;100635.94;5017817;28;20530;-77
2022/02/02 16:45:41;;;;;;;6.20;2.00;;;;;;;2.14;88.17;100643.69;5011788;28;20279;-77
2022/02/02 16:48:09;;;;;;;6.87;1.60;;;;;;;2.14;88.45;100653.97;5012768;28;20204;-77
2022/02/02 16:50:39;;;;;;;2.53;1.20;;;;;;;2.17;88.20;100648.84;5018485;28;20224;-77
2022/02/02 16:53:11;;;;;;;5.33;1.57;;;;;;;2.16;88.66;100654.84;5017305;28;20207;-77
2022/02/02 16:55:44;;;;;;;6.17;1.37;;;;;;;2.19;88.62;100674.59;5021892;28;20223;-76
2022/02/02 17:24:12;;;;;;;3.87;1.27;;;;;;;2.22;88.19;100666.91;5021884;28;21274;-77
2022/02/02 17:31:30;;;;;;;6.27;2.37;;;;;;;1.86;91.28;100725.69;5028284;28;20226;-76
2022/02/02 17:34:01;;;;;;;5.20;1.37;;;;;;;1.82;91.55;100741.94;5023239;28;20215;-77
2022/02/02 17:36:32;;;;;;;5.83;2.00;;;;;;;1.76;92.25;100744.47;5022487;28;20896;-77
2022/02/02 17:39:08;;;;;;;4.47;1.40;;;;;;;1.74;92.60;100751.25;5020384;28;20382;-76
2022/02/02 17:41:55;;;;;;;10.07;1.97;;;;;;;1.78;92.64;100754.78;5021193;28;20644;-77
2022/02/02 17:59:01;;;;;;;4.77;1.50;;;;;;;1.59;93.40;100771.66;5022489;28;20219;-76